Kobuk Valley National Park, AK

10:15 PM AKDT on July 27, 2014 (GMT -0800)
Baker Memorial (PAIK) Elev 151 ft | 66.98 °N, 160.44 °W | Change Station

Current weather conditions updated 14 minutes ago

Light Rain
Light Rain
50 °F
Feels Like 50 °F
N
5
Wind Variable Wind from North

Tomorrow is forecast to be nearly the same temperature as today.

Today
High -- | Low -- °F
--% Chance of Precip.
Yesterday
High -- | Low -- °F
Precip. -- in
4:40 AM 0:50 AM
New Moon, 2% visible
Pressure 30.20 in
Visibility 10.0 miles
Clouds Overcast 4900 ft
Dew Point 48 °F
Humidity 93%
Rainfall 0.00 in
Snow Depth Not available.
UV 0 out of 12
Pollen Not available.
Air Quality Not available.
Flu Activity Not available.
METAR PAIK 280601Z AUTO 36004KT 10SM -RA OVC049 10/09 A3008 RMK AO2 SLP225 P0000 60000 T01000089 10144 20100 51008

More Conditions Fewer Conditions

Pressure 30.20 in
Visibility 10.0 miles
Clouds Overcast 4900 ft
Dew Point 48 °F
Humidity 93%
Rainfall 0.00 in
Snow Depth Not available.
UV 0 out of 12
Pollen Not available.
Air Quality Not available.
Flu Activity Not available.
METAR PAIK 280601Z AUTO 36004KT 10SM -RA OVC049 10/09 A3008 RMK AO2 SLP225 P0000 60000 T01000089 10144 20100 51008

More Conditions Fewer Conditions

10-Day Weather Forecast

Almanac

Astronomy

Jul. 27, 2014 Rise Set
Actual Time 4:40 AM AKDT 12:50 AM AKDT
Civil Twilight Sun does not rise Sun does not rise
Nautical Twilight Sun does not rise Sun does not rise
Astronomical Twilight Sun does not rise Sun does not rise
Moon 7:01 AM AKDT (7/27) 11:28 PM AKDT (7/27)
Length of Visible Light 24h 00m
Length of Day
20h 09m
Tomorrow will be 10m 18s shorter.
New Moon, 2% of the Moon is Illuminated
Jul 28
New Moon
Aug 3
First Quarter
Aug 10
Full
Aug 17
Last Quarter
Aug 25
New

Yesterday's Extremes

State Highs State Lows

Community

WunderPhotos

Upload Photos

1,738,288 photos uploaded!

Nearby

Snow Depth

Station Depth Elevation
Rocky Point 3 in 500 ft
Gobblers Knob 0 in 2030 ft
Coldfoot 0 in 1040 ft
Atigun Pass 0 in 4800 ft
Imnaviat Creek 0 in 3050 ft

Earthquake Activity

City Distance Mag. Time & Date
No recent earthquake activity has been reported nearby.
Minimum magnitude displayed is 2.5.

Coastal Water Temperatures

Place Temperature
No Stations Reporting

Nearby Weather Stations

There are no personal weather stations in this area.